Time;durP1;ratioP1;P1;durP2;ratioP2;P2;SDS_P1;SDS_P2;PMS_P1;PMS_P2;Temp;Humidity;BMP_temperature;BMP_pressure;BME280_temperature;BME280_humidity;BME280_pressure;Samples;Min_cycle;Max_cycle;Signal;HPM_P1;HPM_P2
2022/05/23 00:00:24;;;;;;;3.70;2.90;;;19.00;98.50;;;;;;5073572;28;20436;-57
2022/05/23 00:02:52;;;;;;;3.97;3.17;;;19.10;98.90;;;;;;5073305;28;20535;-58
2022/05/23 00:05:20;;;;;;;3.37;2.77;;;19.20;99.20;;;;;;5073272;28;20802;-58
2022/05/23 00:07:49;;;;;;;4.20;2.93;;;19.20;98.90;;;;;;5073689;28;20812;-58
2022/05/23 00:10:20;;;;;;;2.80;2.60;;;19.10;98.70;;;;;;5072287;28;20544;-58
2022/05/23 00:12:48;;;;;;;7.00;3.00;;;19.10;99.10;;;;;;5073579;28;20428;-58
2022/05/23 00:15:15;;;;;;;2.93;2.67;;;19.00;99.40;;;;;;5073175;28;20791;-58
2022/05/23 00:17:43;;;;;;;4.33;3.13;;;19.00;99.20;;;;;;5073629;28;20440;-58
2022/05/23 00:20:15;;;;;;;3.00;2.80;;;18.90;99.50;;;;;;5073258;28;20507;-58
2022/05/23 00:22:43;;;;;;;5.73;3.30;;;;;;;;;;5073449;28;20440;-59
2022/05/23 00:25:11;;;;;;;3.03;2.83;;;18.90;99.00;;;;;;5073086;28;20935;-58
2022/05/23 00:27:40;;;;;;;3.50;2.60;;;18.80;99.50;;;;;;5073419;28;20463;-58
2022/05/23 00:30:09;;;;;;;2.90;2.70;;;18.90;99.60;;;;;;5073296;28;20502;-58
2022/05/23 00:35:22;;;;;;;5.20;3.10;;;18.90;99.70;;;;;;5073350;28;20420;-58
2022/05/23 00:37:51;;;;;;;3.17;2.90;;;19.00;99.90;;;;;;5073242;28;20448;-58
2022/05/23 00:40:30;;;;;;;3.13;2.63;;;19.00;99.90;;;;;;5073196;28;20484;-59
2022/05/23 00:43:14;;;;;;;3.53;3.00;;;19.00;99.80;;;;;;5072975;28;20480;-58
2022/05/23 00:45:43;;;;;;;4.00;2.97;;;19.00;99.60;;;;;;5073362;28;20421;-58
2022/05/23 00:48:11;;;;;;;3.03;2.70;;;19.00;99.50;;;;;;5073164;28;20448;-58
2022/05/23 00:50:41;;;;;;;3.57;3.00;;;19.00;99.30;;;;;;5072885;28;20936;-58
2022/05/23 00:53:10;;;;;;;4.60;3.07;;;19.00;99.30;;;;;;5073181;28;20432;-58
2022/05/23 00:55:40;;;;;;;3.33;3.07;;;18.90;99.10;;;;;;5073124;28;20451;-58
2022/05/23 00:58:09;;;;;;;3.40;3.10;;;18.90;99.00;;;;;;5072759;28;20958;-58
2022/05/23 01:00:37;;;;;;;5.53;3.10;;;18.90;98.90;;;;;;5072934;28;20490;-58
2022/05/23 01:03:08;;;;;;;3.50;3.20;;;18.90;98.60;;;;;;5072666;28;20452;-59
2022/05/23 01:05:37;;;;;;;3.40;2.90;;;18.90;98.70;;;;;;5073056;28;20511;-58
2022/05/23 01:08:07;;;;;;;5.60;3.10;;;19.00;99.60;;;;;;5072626;28;20450;-57
2022/05/23 01:10:36;;;;;;;5.03;3.00;;;19.00;99.60;;;;;;5072721;28;20792;-59
2022/05/23 01:13:08;;;;;;;3.00;2.80;;;18.90;99.90;;;;;;5073019;28;20448;-58
2022/05/23 01:15:35;;;;;;;5.23;3.13;;;18.90;99.50;;;;;;5072587;28;20448;-58
2022/05/23 01:18:04;;;;;;;3.90;2.60;;;18.90;99.40;;;;;;5072947;28;20440;-58
2022/05/23 01:20:31;;;;;;;3.57;2.90;;;18.90;99.90;;;;;;5073768;28;20571;-58
2022/05/23 01:23:12;;;;;;;3.13;2.73;;;18.90;99.70;;;;;;5076339;28;20510;-58
2022/05/23 01:25:43;;;;;;;3.60;2.83;;;18.90;98.70;;;;;;5076358;28;20458;-58
2022/05/23 01:28:12;;;;;;;2.70;2.50;;;18.90;98.60;;;;;;5076122;28;20511;-58
2022/05/23 01:30:41;;;;;;;3.60;2.60;;;18.90;98.50;;;;;;5076103;28;20436;-58
2022/05/23 01:33:09;;;;;;;4.73;3.27;;;18.90;98.20;;;;;;5076104;28;20543;-59
2022/05/23 01:35:38;;;;;;;3.60;3.30;;;18.90;98.50;;;;;;5075945;28;20480;-58
2022/05/23 01:38:06;;;;;;;3.20;2.93;;;19.00;99.00;;;;;;5076179;28;20454;-58
2022/05/23 01:40:34;;;;;;;2.60;2.40;;;19.00;98.40;;;;;;5075885;28;20476;-58
2022/05/23 01:43:03;;;;;;;4.10;3.00;;;18.70;99.00;;;;;;5075668;28;20480;-59
2022/05/23 01:45:33;;;;;;;4.10;3.10;;;;;;;;;;5075734;28;20486;-58
2022/05/23 01:48:01;;;;;;;4.40;3.40;;;18.60;99.20;;;;;;5076023;28;20445;-58
2022/05/23 01:50:28;;;;;;;6.70;3.47;;;18.50;99.80;;;;;;5075827;28;20468;-58
2022/05/23 01:52:55;;;;;;;7.90;4.47;;;18.40;99.90;;;;;;5075991;28;20452;-58
2022/05/23 01:55:23;;;;;;;3.70;3.20;;;18.50;99.90;;;;;;5075800;28;20444;-59
2022/05/23 01:57:50;;;;;;;3.27;2.77;;;18.40;99.90;;;;;;5075645;28;20445;-58
2022/05/23 02:03:05;;;;;;;5.30;2.67;;;18.40;99.90;;;;;;5075496;28;20482;-58
2022/05/23 02:05:33;;;;;;;4.93;2.97;;;18.40;99.90;;;;;;5075964;28;20451;-58
2022/05/23 02:08:00;;;;;;;3.47;3.00;;;18.40;99.90;;;;;;5075266;28;20547;-58
2022/05/23 02:10:28;;;;;;;3.43;3.13;;;18.40;99.90;;;;;;5075652;28;20452;-58
2022/05/23 02:12:56;;;;;;;3.57;3.27;;;18.40;99.90;;;;;;5075591;28;20445;-58
2022/05/23 02:15:25;;;;;;;4.03;2.87;;;18.40;99.90;;;;;;5075339;28;20934;-58
2022/05/23 02:17:52;;;;;;;3.20;3.00;;;18.40;99.90;;;;;;5075645;28;20502;-58
2022/05/23 02:20:19;;;;;;;4.50;3.27;;;18.30;99.90;;;;;;5075414;28;20555;-60
2022/05/23 02:22:47;;;;;;;4.13;2.80;;;18.30;99.90;;;;;;5075497;28;20448;-58
2022/05/23 02:25:14;;;;;;;3.63;3.23;;;18.40;99.90;;;;;;5075157;28;20475;-57
2022/05/23 02:27:41;;;;;;;2.93;2.70;;;18.40;99.90;;;;;;5075040;28;20543;-58
2022/05/23 02:30:09;;;;;;;3.33;3.13;;;18.20;99.90;;;;;;5075148;28;20564;-58
2022/05/23 02:32:38;;;;;;;3.33;3.03;;;18.10;99.90;;;;;;5074283;28;20543;-58
2022/05/23 02:35:07;;;;;;;6.03;3.40;;;18.00;99.90;;;;;;5074924;28;20452;-58
2022/05/23 02:37:34;;;;;;;3.60;3.27;;;18.00;99.90;;;;;;5074892;28;20954;-58
2022/05/23 02:40:01;;;;;;;3.00;2.80;;;18.10;99.90;;;;;;5074857;28;20498;-59
2022/05/23 02:42:29;;;;;;;3.87;3.43;;;18.00;99.90;;;;;;5074232;28;20476;-58
2022/05/23 02:44:57;;;;;;;6.23;3.60;;;18.20;99.90;;;;;;5074990;28;20443;-58
2022/05/23 02:47:24;;;;;;;4.27;3.57;;;18.10;99.90;;;;;;5074721;28;20445;-58
2022/05/23 02:49:55;;;;;;;4.03;3.20;;;18.10;99.90;;;;;;5074746;28;20547;-58
2022/05/23 02:52:22;;;;;;;4.10;3.70;;;18.10;99.90;;;;;;5074835;28;20436;-58
2022/05/23 02:54:50;;;;;;;6.50;3.30;;;18.10;99.90;;;;;;5074726;28;20460;-58
2022/05/23 02:57:17;;;;;;;5.07;2.70;;;18.00;99.90;;;;;;5074576;28;20531;-59
2022/05/23 02:59:44;;;;;;;5.17;3.50;;;17.90;99.90;;;;;;5074170;28;20488;-58
2022/05/23 03:04:57;;;;;;;5.80;3.40;;;17.80;99.90;;;;;;5074461;28;20463;-58
2022/05/23 03:07:24;;;;;;;3.30;3.00;;;17.90;99.90;;;;;;5074662;28;20476;-58
2022/05/23 03:09:52;;;;;;;3.60;3.30;;;17.90;99.90;;;;;;5074445;28;20472;-58
2022/05/23 03:12:19;;;;;;;4.50;3.87;;;17.80;99.90;;;;;;5074640;28;20547;-58
2022/05/23 03:14:46;;;;;;;4.03;3.53;;;17.80;99.90;;;;;;5074333;28;20484;-58
2022/05/23 03:17:13;;;;;;;3.97;3.57;;;17.80;99.90;;;;;;5074044;28;20455;-58
2022/05/23 03:19:41;;;;;;;4.73;4.20;;;17.80;99.90;;;;;;5074088;28;20487;-58
2022/05/23 03:27:40;;;;;;;3.70;3.40;;;17.80;99.90;;;;;;5073862;28;20448;-58
2022/05/23 03:30:09;;;;;;;5.10;3.77;;;17.70;99.90;;;;;;5074120;28;20460;-58
2022/05/23 03:32:36;;;;;;;6.53;4.20;;;17.60;99.90;;;;;;5074004;28;20448;-58
2022/05/23 03:35:04;;;;;;;4.37;3.27;;;17.60;99.90;;;;;;5073973;28;20455;-58
2022/05/23 03:37:32;;;;;;;5.70;3.53;;;17.60;99.90;;;;;;5073619;28;20536;-58
2022/05/23 03:39:59;;;;;;;4.50;3.90;;;17.60;99.90;;;;;;5073594;28;20514;-58
2022/05/23 03:42:26;;;;;;;5.90;3.37;;;17.60;99.90;;;;;;5073343;28;20476;-58
2022/05/23 03:44:54;;;;;;;3.83;3.33;;;17.50;99.90;;;;;;5073547;28;20436;-58
2022/05/23 03:47:21;;;;;;;3.50;3.20;;;17.60;99.90;;;;;;5073461;28;20536;-58
2022/05/23 03:49:48;;;;;;;3.87;3.57;;;17.60;99.90;;;;;;5073813;28;20456;-58
2022/05/23 03:52:15;;;;;;;4.83;3.90;;;17.60;99.90;;;;;;5073536;28;20786;-58
2022/05/23 03:54:44;;;;;;;4.60;3.83;;;17.70;99.90;;;;;;5073767;28;20460;-58
2022/05/23 03:57:11;;;;;;;3.30;3.10;;;17.70;99.90;;;;;;5073219;28;20452;-58
2022/05/23 03:59:38;;;;;;;7.70;3.80;;;17.80;99.90;;;;;;5073285;28;20488;-58
2022/05/23 04:02:06;;;;;;;6.30;3.60;;;17.90;99.90;;;;;;5073582;28;20839;-58
2022/05/23 04:04:33;;;;;;;5.73;3.40;;;18.00;99.90;;;;;;5073230;28;20444;-58
2022/05/23 04:07:01;;;;;;;3.40;3.10;;;18.10;99.90;;;;;;5073225;28;20543;-58
2022/05/23 04:09:28;;;;;;;8.83;3.37;;;18.10;99.90;;;;;;5073254;28;20464;-59
2022/05/23 04:11:57;;;;;;;3.70;3.40;;;18.10;99.90;;;;;;5073506;28;20543;-58
2022/05/23 04:14:25;;;;;;;3.43;2.77;;;18.10;99.90;;;;;;5073273;28;20531;-58
2022/05/23 04:16:54;;;;;;;3.20;2.87;;;18.00;99.90;;;;;;5073446;28;20843;-58
2022/05/23 04:19:21;;;;;;;3.37;3.00;;;17.90;99.90;;;;;;5073374;28;20562;-58
2022/05/23 04:21:49;;;;;;;3.30;3.00;;;17.70;99.90;;;;;;5073240;28;20494;-58
2022/05/23 04:24:19;;;;;;;3.30;3.00;;;17.70;99.90;;;;;;5073384;28;20521;-59
2022/05/23 04:26:52;;;;;;;5.70;2.60;;;17.70;99.90;;;;;;5073076;28;20472;-58
2022/05/23 04:29:21;;;;;;;3.40;3.10;;;17.80;99.90;;;;;;5073439;28;20460;-59
2022/05/23 04:31:48;;;;;;;3.10;2.63;;;17.90;99.90;;;;;;5073247;28;20839;-58
2022/05/23 04:37:00;;;;;;;2.77;2.43;;;17.90;99.90;;;;;;5073113;28;20408;-58
2022/05/23 04:39:28;;;;;;;3.60;3.10;;;18.00;99.90;;;;;;5072991;28;20805;-59
2022/05/23 04:41:56;;;;;;;5.93;2.70;;;18.10;99.90;;;;;;5073180;28;20448;-58
2022/05/23 04:44:24;;;;;;;4.83;3.10;;;18.10;99.90;;;;;;5073005;28;20841;-59
2022/05/23 04:49:42;;;;;;;3.27;2.97;;;18.00;99.90;;;;;;5072792;28;20443;-59
2022/05/23 04:52:10;;;;;;;3.53;3.23;;;18.00;99.90;;;;;;5073234;28;20850;-58
2022/05/23 04:54:38;;;;;;;3.70;3.20;;;17.80;99.90;;;;;;5072821;28;20463;-58
2022/05/23 04:57:06;;;;;;;3.20;3.00;;;17.70;99.90;;;;;;5076145;28;20941;-58
2022/05/23 04:59:35;;;;;;;5.90;3.10;;;17.60;99.90;;;;;;5076541;28;20456;-57
2022/05/23 05:02:03;;;;;;;6.33;3.33;;;17.50;99.90;;;;;;5076952;28;20448;-58
2022/05/23 05:04:31;;;;;;;3.90;2.93;;;17.50;99.90;;;;;;5076594;28;20448;-58
2022/05/23 05:06:58;;;;;;;3.90;3.17;;;17.30;99.90;;;;;;5076989;28;20812;-58
2022/05/23 05:09:26;;;;;;;3.93;3.37;;;17.20;99.90;;;;;;5076367;28;20476;-58
2022/05/23 05:11:53;;;;;;;4.53;3.70;;;17.10;99.90;;;;;;5076388;28;20976;-58
2022/05/23 05:14:20;;;;;;;3.27;2.80;;;17.00;99.90;;;;;;5076353;28;20448;-57
2022/05/23 05:16:49;;;;;;;4.93;3.70;;;17.00;99.90;;;;;;5076359;28;20448;-58
2022/05/23 05:19:16;;;;;;;3.57;3.27;;;17.00;99.90;;;;;;5076367;28;20464;-58
2022/05/23 05:21:44;;;;;;;3.23;2.93;;;17.00;99.90;;;;;;5076470;28;20484;-58
2022/05/23 05:24:11;;;;;;;5.33;4.30;;;16.90;99.90;;;;;;5076268;28;20535;-58
2022/05/23 05:26:38;;;;;;;4.30;3.90;;;16.90;99.90;;;;;;5076549;28;20531;-58
2022/05/23 05:29:06;;;;;;;3.97;3.30;;;16.90;99.90;;;;;;5076354;28;20470;-58
2022/05/23 05:31:38;;;;;;;8.73;3.53;;;17.00;99.90;;;;;;5076184;28;20436;-58
2022/05/23 05:34:11;;;;;;;5.07;3.30;;;17.20;99.90;;;;;;5075986;28;20429;-59
2022/05/23 05:36:43;;;;;;;3.97;3.57;;;17.20;99.90;;;;;;5076392;28;20428;-58
2022/05/23 05:39:12;;;;;;;3.90;3.33;;;17.10;99.90;;;;;;5076123;28;20460;-58
2022/05/23 05:41:45;;;;;;;5.60;3.70;;;17.00;99.90;;;;;;5075782;28;20483;-58
2022/05/23 05:44:19;;;;;;;6.23;3.40;;;17.00;99.90;;;;;;5075517;28;20812;-58
2022/05/23 05:46:49;;;;;;;6.10;4.13;;;16.90;99.90;;;;;;5075767;28;20460;-58
2022/05/23 05:49:23;;;;;;;7.20;4.20;;;16.90;99.90;;;;;;5075575;28;20535;-57
2022/05/23 05:51:52;;;;;;;7.50;3.90;;;16.90;99.90;;;;;;5075912;28;20555;-58
2022/05/23 05:54:22;;;;;;;6.50;4.00;;;16.90;99.90;;;;;;5075403;28;20463;-58
2022/05/23 05:56:50;;;;;;;4.87;4.17;;;17.00;99.90;;;;;;5075658;28;20441;-58
2022/05/23 05:59:19;;;;;;;4.80;4.27;;;17.00;99.90;;;;;;5075653;28;20468;-57
2022/05/23 06:01:47;;;;;;;5.67;4.10;;;17.10;99.90;;;;;;5075463;28;20518;-58
2022/05/23 06:04:14;;;;;;;4.17;3.77;;;17.20;99.90;;;;;;5075455;28;20474;-57
2022/05/23 06:12:11;;;;;;;5.43;4.90;;;17.60;99.90;;;;;;5075406;28;20412;-57
2022/05/23 06:14:39;;;;;;;6.00;4.60;;;17.60;99.90;;;;;;5075475;28;20473;-58
2022/05/23 06:17:07;;;;;;;6.10;4.73;;;17.70;99.90;;;;;;5075348;28;20935;-57
2022/05/23 06:19:39;;;;;;;5.63;4.17;;;17.80;99.90;;;;;;5075169;28;20468;-58
2022/05/23 06:22:10;;;;;;;4.70;4.30;;;18.00;99.90;;;;;;5075055;28;20464;-58
2022/05/23 06:24:38;;;;;;;5.03;4.33;;;18.10;99.90;;;;;;5075146;28;20456;-58
2022/05/23 06:27:06;;;;;;;7.83;4.57;;;18.10;99.90;;;;;;5074583;28;20531;-58
2022/05/23 06:29:35;;;;;;;4.00;3.57;;;18.10;99.90;;;;;;5075029;28;20590;-58
2022/05/23 06:32:02;;;;;;;3.83;3.53;;;18.10;99.90;;;;;;5074815;28;20451;-57
2022/05/23 06:34:29;;;;;;;4.40;3.50;;;18.20;99.90;;;;;;5074709;28;20450;-58
2022/05/23 06:36:57;;;;;;;4.60;4.20;;;18.30;99.90;;;;;;5075017;28;20476;-57
2022/05/23 06:39:26;;;;;;;6.40;4.10;;;18.30;99.90;;;;;;5074675;28;20503;-57
2022/05/23 06:41:53;;;;;;;4.20;3.80;;;18.40;99.90;;;;;;5074919;28;20906;-57
2022/05/23 06:44:21;;;;;;;4.90;4.27;;;18.40;99.90;;;;;;5074409;28;20511;-57
2022/05/23 06:46:48;;;;;;;4.30;3.90;;;18.50;99.90;;;;;;5074671;28;20450;-56
2022/05/23 06:49:16;;;;;;;4.73;4.20;;;18.40;99.90;;;;;;5074290;28;20466;-57
2022/05/23 06:51:48;;;;;;;7.70;5.37;;;18.10;99.90;;;;;;5074511;28;20468;-57
2022/05/23 06:54:17;;;;;;;7.80;3.90;;;18.00;99.90;;;;;;5074323;28;20437;-56
2022/05/23 06:56:48;;;;;;;8.50;4.73;;;18.10;99.90;;;;;;5074531;28;20494;-57
2022/05/23 06:59:16;;;;;;;4.43;4.03;;;18.10;99.90;;;;;;5074714;28;20517;-57
2022/05/23 07:01:48;;;;;;;5.03;3.87;;;18.40;99.90;;;;;;5074315;28;20574;-57
2022/05/23 07:04:16;;;;;;;4.70;4.30;;;18.60;99.90;;;;;;5074661;28;20436;-58
2022/05/23 07:12:28;;;;;;;4.53;4.13;;;18.60;99.90;;;;;;5051881;28;20430;-59
2022/05/23 07:14:57;;;;;;;6.80;4.40;;;18.60;99.90;;;;;;5051777;28;20533;-56
2022/05/23 07:17:25;;;;;;;3.90;3.60;;;18.70;99.90;;;;;;5061663;28;20513;-57
2022/05/23 07:19:52;;;;;;;4.63;3.77;;;18.90;99.90;;;;;;5073447;28;20962;-57
2022/05/23 07:22:19;;;;;;;4.80;3.60;;;18.90;99.90;;;;;;5073986;28;20567;-57
2022/05/23 07:24:46;;;;;;;13.27;4.30;;;18.80;99.90;;;;;;5073839;28;20492;-57
2022/05/23 07:27:14;;;;;;;5.80;4.73;;;18.90;99.90;;;;;;5073596;28;20527;-57
2022/05/23 07:29:43;;;;;;;4.47;3.80;;;18.80;99.90;;;;;;5073977;28;20464;-57
2022/05/23 07:32:13;;;;;;;5.00;4.10;;;18.70;99.90;;;;;;5073919;28;20539;-57
2022/05/23 07:34:41;;;;;;;3.73;3.43;;;19.00;99.90;;;;;;5074007;28;20428;-57
2022/05/23 07:37:10;;;;;;;5.90;4.10;;;19.30;99.90;;;;;;5073662;28;20479;-57
2022/05/23 07:39:38;;;;;;;3.60;3.30;;;19.70;99.90;;;;;;5073451;28;20464;-57
2022/05/23 07:42:06;;;;;;;3.60;3.30;;;20.10;99.90;;;;;;5073191;28;20510;-57
2022/05/23 07:44:34;;;;;;;4.07;3.60;;;20.10;99.90;;;;;;5073579;28;20425;-57
2022/05/23 07:47:06;;;;;;;3.83;3.53;;;20.00;99.90;;;;;;5073290;28;20448;-57
2022/05/23 07:49:33;;;;;;;4.50;4.10;;;20.20;99.90;;;;;;5073607;28;20475;-57
2022/05/23 07:52:02;;;;;;;4.37;3.50;;;20.30;99.90;;;;;;5073331;28;20498;-58
2022/05/23 08:02:46;;;;;;;3.90;3.60;;;20.30;99.90;;;;;;5073295;28;20472;-57
2022/05/23 08:05:13;;;;;;;3.47;3.10;;;20.30;99.90;;;;;;5073553;28;20455;-57
2022/05/23 08:07:40;;;;;;;3.97;3.57;;;20.40;99.90;;;;;;5073285;28;20539;-57
2022/05/23 08:10:08;;;;;;;3.57;3.33;;;;;;;;;;5073217;28;20559;-57
2022/05/23 08:12:36;;;;;;;4.60;3.83;;;21.00;99.90;;;;;;5073481;28;20540;-58
2022/05/23 08:15:04;;;;;;;3.47;3.17;;;20.90;99.90;;;;;;5072948;28;20539;-58
2022/05/23 08:17:31;;;;;;;3.97;3.57;;;21.00;99.90;;;;;;5073293;28;20457;-58
2022/05/23 08:20:00;;;;;;;4.53;3.70;;;20.80;99.90;;;;;;5073247;28;20475;-58
2022/05/23 08:22:29;;;;;;;3.50;3.20;;;20.90;99.90;;;;;;5073219;28;20486;-58
2022/05/23 08:24:56;;;;;;;4.23;3.37;;;20.80;99.90;;;;;;5072680;28;20442;-59
2022/05/23 08:27:23;;;;;;;5.00;3.73;;;20.90;99.90;;;;;;5073380;28;20487;-58
2022/05/23 08:29:52;;;;;;;3.63;3.23;;;20.80;99.90;;;;;;5073077;28;20547;-57
2022/05/23 08:32:20;;;;;;;4.60;3.00;;;20.80;99.90;;;;;;5077084;28;20471;-57
2022/05/23 08:34:48;;;;;;;3.50;3.20;;;20.70;99.90;;;;;;5076766;28;20947;-57
2022/05/23 08:37:17;;;;;;;7.20;3.83;;;20.70;99.90;;;;;;5077270;28;20444;-58
2022/05/23 08:39:46;;;;;;;3.90;3.50;;;20.50;99.90;;;;;;5077144;28;20456;-58
2022/05/23 08:42:22;;;;;;;7.50;4.60;;;20.50;99.90;;;;;;5076963;28;20545;-57
2022/05/23 08:44:58;;;;;;;4.30;3.77;;;20.60;99.90;;;;;;5077154;28;20497;-58
2022/05/23 08:47:32;;;;;;;3.90;3.60;;;20.50;99.90;;;;;;5076996;28;20436;-58
2022/05/23 08:50:15;;;;;;;8.33;3.80;;;20.60;99.90;;;;;;5077481;28;20471;-57
2022/05/23 08:52:47;;;;;;;3.97;3.67;;;20.60;99.90;;;;;;5076904;28;20420;-58
2022/05/23 08:55:20;;;;;;;4.00;3.20;;;20.80;99.90;;;;;;5076584;28;20474;-57
2022/05/23 08:57:57;;;;;;;4.53;3.80;;;20.90;99.90;;;;;;5076388;28;20432;-57
2022/05/23 09:00:29;;;;;;;5.07;4.20;;;20.90;99.90;;;;;;5076764;28;20424;-57
2022/05/23 09:03:01;;;;;;;11.53;3.73;;;20.80;99.90;;;;;;5076304;28;20899;-57
2022/05/23 09:05:33;;;;;;;5.10;4.07;;;20.80;99.90;;;;;;5076118;28;20489;-57
2022/05/23 09:08:05;;;;;;;4.73;3.73;;;20.80;99.90;;;;;;5076250;28;20435;-57
2022/05/23 09:10:40;;;;;;;6.00;4.27;;;20.80;99.90;;;;;;5076336;28;20429;-57
2022/05/23 09:13:08;;;;;;;7.80;3.93;;;20.80;99.90;;;;;;5076221;28;20428;-57
2022/05/23 09:15:35;;;;;;;4.70;3.83;;;21.00;99.90;;;;;;5076317;28;20443;-57
2022/05/23 09:18:06;;;;;;;7.70;4.07;;;21.30;99.90;;;;;;5075790;28;20535;-57
2022/05/23 09:20:39;;;;;;;4.47;4.07;;;21.30;99.90;;;;;;5076114;28;20447;-56
2022/05/23 09:23:11;;;;;;;5.93;4.80;;;21.30;99.90;;;;;;5075171;28;20555;-60
2022/05/23 09:25:39;;;;;;;4.90;3.87;;;21.20;99.90;;;;;;5075356;28;20950;-58
2022/05/23 09:28:23;;;;;;;7.40;4.30;;;21.20;99.90;;;;;;5075753;28;20958;-58
2022/05/23 09:31:07;;;;;;;5.07;4.10;;;21.20;99.90;;;;;;5076228;28;20435;-57
2022/05/23 09:33:45;;;;;;;6.10;4.60;;;21.20;99.90;;;;;;5076085;28;20511;-57
2022/05/23 09:36:18;;;;;;;3.90;3.37;;;21.10;99.90;;;;;;5075584;28;20899;-58
2022/05/23 09:38:54;;;;;;;5.10;4.10;;;21.10;99.90;;;;;;5076025;28;20487;-57
2022/05/23 09:49:52;;;;;;;3.80;3.40;;;21.80;99.90;;;;;;5064759;28;20448;-57
2022/05/23 09:52:25;;;;;;;5.23;3.70;;;22.10;99.90;;;;;;5075730;28;20451;-58
2022/05/23 09:54:58;;;;;;;5.30;4.17;;;22.30;99.90;;;;;;5075440;28;20502;-57
2022/05/23 09:57:27;;;;;;;4.23;3.90;;;22.30;99.90;;;;;;5075782;28;20484;-57
2022/05/23 10:00:00;;;;;;;4.10;3.70;;;22.40;99.90;;;;;;5075221;28;20841;-58
2022/05/23 10:02:37;;;;;;;7.10;4.13;;;22.50;99.90;;;;;;5075462;28;20504;-58
2022/05/23 10:05:11;;;;;;;4.47;4.13;;;22.70;99.90;;;;;;5075470;28;20428;-58
2022/05/23 10:07:39;;;;;;;7.37;4.60;;;22.70;99.90;;;;;;5075125;28;20460;-58
2022/05/23 10:10:21;;;;;;;4.53;4.13;;;22.90;99.90;;;;;;5074943;28;20478;-58
2022/05/23 10:12:50;;;;;;;4.97;4.47;;;22.80;99.90;;;;;;5075227;28;20474;-57
2022/05/23 10:15:24;;;;;;;5.17;4.57;;;23.00;99.90;;;;;;5075574;28;20452;-58
2022/05/23 10:18:02;;;;;;;5.70;5.20;;;23.00;99.90;;;;;;5074990;28;20429;-58
2022/05/23 10:20:35;;;;;;;4.70;4.20;;;23.00;99.90;;;;;;5075234;28;20486;-58
2022/05/23 10:23:07;;;;;;;5.27;3.40;;;22.80;99.90;;;;;;5074788;28;20471;-58
2022/05/23 10:25:40;;;;;;;4.57;4.03;;;22.70;99.90;;;;;;5074385;28;20484;-58
2022/05/23 10:28:12;;;;;;;4.10;3.73;;;22.70;99.90;;;;;;5075069;28;20427;-58
2022/05/23 10:30:46;;;;;;;7.03;4.40;;;22.80;99.90;;;;;;5074623;28;20425;-57
2022/05/23 10:33:16;;;;;;;4.57;4.00;;;22.80;99.90;;;;;;5075005;28;20502;-58
2022/05/23 10:35:47;;;;;;;4.87;4.03;;;23.00;99.90;;;;;;5074195;28;20456;-57
2022/05/23 10:44:17;;;;;;;4.50;3.87;;;22.90;99.90;;;;;;5074346;28;20474;-58
2022/05/23 10:46:48;;;;;;;4.30;4.00;;;22.90;99.90;;;;;;5074719;28;20499;-58
2022/05/23 10:49:22;;;;;;;4.50;3.50;;;23.00;99.90;;;;;;5074349;28;20996;-58
2022/05/23 10:52:02;;;;;;;4.67;4.23;;;23.00;99.90;;;;;;5074636;28;20770;-58
2022/05/23 10:54:42;;;;;;;5.93;3.97;;;23.00;99.90;;;;;;5073388;28;20506;-58
2022/05/23 10:57:23;;;;;;;5.30;4.80;;;23.00;99.90;;;;;;5074471;28;20490;-57
2022/05/23 10:59:53;;;;;;;6.03;4.23;;;22.90;99.90;;;;;;5074226;28;20460;-58
2022/05/23 11:02:37;;;;;;;8.70;4.20;;;22.90;99.90;;;;;;5074001;28;20505;-57
2022/05/23 11:05:14;;;;;;;4.30;3.90;;;22.70;99.90;;;;;;5073849;28;20519;-57
2022/05/23 11:07:51;;;;;;;5.53;3.80;;;22.60;99.90;;;;;;5074377;28;20508;-57
2022/05/23 11:10:26;;;;;;;5.37;4.00;;;22.40;99.90;;;;;;5073883;28;20451;-57
2022/05/23 11:13:06;;;;;;;6.30;4.53;;;22.10;99.90;;;;;;5074117;28;20524;-57
2022/05/23 11:15:45;;;;;;;4.70;4.30;;;22.00;99.90;;;;;;5074288;28;20547;-57
2022/05/23 11:18:22;;;;;;;6.40;4.60;;;21.80;99.90;;;;;;5073617;28;20435;-57
2022/05/23 11:20:54;;;;;;;5.57;5.00;;;21.70;99.90;;;;;;5073861;28;20435;-57
2022/05/23 11:23:28;;;;;;;7.13;4.73;;;21.50;99.90;;;;;;5073889;28;20468;-57
2022/05/23 11:26:02;;;;;;;6.17;4.23;;;21.40;99.90;;;;;;5073200;28;20460;-58
2022/05/23 11:34:23;;;;;;;9.30;6.10;;;20.70;99.90;;;;;;5048935;28;20513;-58
2022/05/23 11:37:01;;;;;;;7.60;5.63;;;20.40;99.90;;;;;;5073939;28;20494;-58
2022/05/23 11:39:49;;;;;;;6.93;6.20;;;;;;;;;;5073558;28;20865;-58
2022/05/23 11:42:26;;;;;;;8.90;5.50;;;20.10;99.90;;;;;;5073369;28;20487;-58
2022/05/23 11:48:16;;;;;;;8.77;6.00;;;19.70;99.90;;;;;;5073519;28;20431;-58
2022/05/23 11:50:51;;;;;;;9.23;6.07;;;19.60;99.90;;;;;;5073418;28;20785;-58
2022/05/23 11:53:27;;;;;;;9.37;4.87;;;19.50;99.90;;;;;;5073234;28;20523;-58
2022/05/23 11:56:07;;;;;;;8.17;4.87;;;19.30;99.90;;;;;;5073669;28;20639;-57
2022/05/23 11:58:48;;;;;;;9.73;3.90;;;19.20;99.90;;;;;;5073121;28;20986;-58
2022/05/23 12:01:26;;;;;;;6.87;4.37;;;19.30;99.90;;;;;;5073434;28;20429;-57
2022/05/23 12:04:16;;;;;;;5.60;4.00;;;19.30;99.90;;;;;;5072981;28;20973;-58
2022/05/23 12:06:43;;;;;;;8.40;4.17;;;19.20;99.90;;;;;;5073097;28;20421;-58
2022/05/23 12:09:33;;;;;;;8.87;5.20;;;19.20;99.90;;;;;;5073262;28;20558;-57
2022/05/23 12:12:47;;;;;;;9.90;4.87;;;19.10;99.90;;;;;;5072998;28;20732;-59
2022/05/23 12:15:48;;;;;;;7.27;4.30;;;19.10;99.90;;;;;;5073191;28;20516;-57
2022/05/23 12:18:36;;;;;;;3.93;3.40;;;19.00;99.90;;;;;;5069859;28;20567;-58
2022/05/23 12:21:07;;;;;;;6.73;3.63;;;18.80;99.90;;;;;;5073118;28;20512;-57
2022/05/23 12:23:38;;;;;;;10.90;4.53;;;18.80;99.90;;;;;;5072984;28;20490;-58
2022/05/23 12:26:26;;;;;;;7.83;5.73;;;18.60;99.90;;;;;;5072894;28;20484;-57
2022/05/23 12:28:57;;;;;;;8.50;5.00;;;18.30;99.90;;;;;;5073009;28;20468;-58
2022/05/23 12:31:27;;;;;;;8.20;4.73;;;18.20;99.90;;;;;;5072689;28;20471;-57
2022/05/23 12:34:09;;;;;;;7.30;2.97;;;18.20;99.90;;;;;;5072853;28;20429;-58
2022/05/23 12:36:39;;;;;;;10.40;4.27;;;18.20;99.90;;;;;;5072835;28;20806;-58
2022/05/23 12:39:45;;;;;;;4.33;2.97;;;18.20;99.90;;;;;;5072826;28;20504;-58
2022/05/23 12:42:35;;;;;;;8.03;3.70;;;18.40;99.90;;;;;;5072562;28;20483;-57
2022/05/23 12:45:35;;;;;;;5.63;3.60;;;18.50;99.90;;;;;;5072807;28;20924;-57
2022/05/23 12:48:25;;;;;;;7.90;3.37;;;18.70;99.90;;;;;;5072659;28;20479;-57
2022/05/23 12:51:05;;;;;;;9.53;4.07;;;18.90;99.90;;;;;;5072931;28;20431;-57
2022/05/23 12:53:45;;;;;;;6.83;4.17;;;19.10;99.90;;;;;;5072521;28;20424;-57
2022/05/23 12:56:26;;;;;;;10.00;3.70;;;19.30;99.90;;;;;;5072811;28;20501;-57
2022/05/23 12:59:37;;;;;;;3.63;2.67;;;19.50;99.90;;;;;;5072545;28;20967;-56
2022/05/23 13:02:08;;;;;;;6.60;4.00;;;19.70;99.90;;;;;;5072406;28;20480;-56
2022/05/23 13:04:40;;;;;;;7.73;3.87;;;19.70;99.90;;;;;;5072665;28;20478;-57
2022/05/23 13:07:13;;;;;;;5.60;3.80;;;19.90;99.90;;;;;;5072484;28;20531;-58
2022/05/23 13:09:45;;;;;;;6.87;4.63;;;20.20;99.90;;;;;;5072928;28;20554;-57
2022/05/23 13:12:18;;;;;;;8.60;4.03;;;20.30;99.90;;;;;;5072720;28;20428;-58
2022/05/23 13:14:50;;;;;;;8.47;3.80;;;20.40;99.90;;;;;;5072591;28;20923;-58
2022/05/23 13:17:31;;;;;;;4.53;3.77;;;20.50;99.90;;;;;;5074447;28;20556;-58
2022/05/23 13:22:45;;;;;;;6.30;3.67;;;20.80;99.90;;;;;;5076260;28;20463;-58
2022/05/23 13:25:12;;;;;;;8.43;4.20;;;20.70;99.90;;;;;;5076228;28;20463;-57
2022/05/23 13:27:46;;;;;;;11.47;5.20;;;21.00;99.90;;;;;;5075991;28;20480;-58
2022/05/23 13:30:24;;;;;;;4.17;3.67;;;21.40;99.90;;;;;;5076335;28;20492;-59
2022/05/23 13:33:03;;;;;;;7.50;3.00;;;21.60;99.90;;;;;;5076410;28;20503;-58
2022/05/23 13:35:31;;;;;;;6.80;2.90;;;21.50;99.90;;;;;;5076267;28;20779;-58
2022/05/23 13:38:20;;;;;;;6.43;3.60;;;21.80;99.90;;;;;;5075638;28;20461;-58
2022/05/23 13:40:51;;;;;;;4.57;3.17;;;22.10;99.90;;;;;;5075833;28;20782;-58
2022/05/23 13:43:21;;;;;;;6.60;3.63;;;22.00;99.90;;;;;;5075460;28;20609;-57
2022/05/23 13:45:59;;;;;;;4.80;3.33;;;22.00;99.90;;;;;;5075844;28;20992;-58
2022/05/23 13:48:32;;;;;;;5.40;3.20;;;22.10;99.90;;;;;;5075829;28;20555;-58
2022/05/23 13:51:02;;;;;;;5.63;2.83;;;22.00;99.90;;;;;;5075842;28;20450;-57
2022/05/23 13:53:37;;;;;;;7.57;3.23;;;22.00;99.90;;;;;;5076153;28;20453;-57
2022/05/23 13:56:05;;;;;;;7.23;3.00;;;22.10;99.90;;;;;;5075815;28;20448;-58
2022/05/23 13:58:39;;;;;;;6.60;3.10;;;22.20;99.90;;;;;;5075368;28;20504;-58
2022/05/23 14:01:15;;;;;;;4.93;3.10;;;22.30;99.90;;;;;;5075774;28;20461;-58
2022/05/23 14:03:44;;;;;;;4.17;3.20;;;22.60;99.90;;;;;;5075317;28;20503;-57
2022/05/23 14:06:14;;;;;;;3.77;3.10;;;22.70;99.90;;;;;;5075113;28;20531;-58
2022/05/23 14:08:47;;;;;;;6.90;3.97;;;22.80;99.90;;;;;;5075058;28;21006;-58
2022/05/23 14:11:21;;;;;;;5.30;3.27;;;22.90;99.90;;;;;;5075728;28;20464;-58
2022/05/23 14:13:50;;;;;;;7.37;3.13;;;22.90;99.90;;;;;;5075108;28;20777;-57